Weather observations for the past three days for
Big Bear City Airport
| Date | Time (pdt) | Wind (mph) | Vis. (mi.) | Weather | Sky Cond. | Temperature (ºF) | Relative Humidity | Wind Chill (°F) | Heat Index (°F) | Pressure | Precipitation (in) | ||||||
|---|---|---|---|---|---|---|---|---|---|---|---|---|---|---|---|---|---|
| Air | Dwpt | 6 hour | altimeter (in) | sea level (mb) | 1 hr | 3 hr | 6 hr | ||||||||||
| Max. | Min. | ||||||||||||||||
| 05 | 16:35 | W 13 | 10.00 | Mostly Cloudy | FEW029 BKN042 | 47.7 | 30.4 | 51% | 43 | 29.96 | 0.0 | ||||||
| 05 | 16:15 | SW 7 | 10.00 | Partly Cloudy | SCT029 | 47.1 | 31.1 | 54% | 44 | 29.96 | 0.0 | ||||||
| 05 | 15:55 | SW 8 | 10.00 | Mostly Cloudy | SCT030 BKN037 BKN150 | 45 | 29.5 | 55% | 41 | 29.96 | 0.0 | ||||||
| 05 | 15:35 | W 12 | 10.00 | A Few Clouds | FEW150 | 45.1 | 28.2 | 52% | 40 | 29.96 | 0.0 | ||||||
| 05 | 15:15 | W 10 | 10.00 | Partly Cloudy | SCT032 | 46 | 29.7 | 53% | 42 | 29.97 | 0.0 | ||||||
| 05 | 14:55 | W 8 | 10.00 | A Few Clouds | FEW160 | 45.3 | 28 | 51% | 42 | 29.97 | 0.0 | ||||||
| 05 | 14:35 | W 14 | 10.00 | A Few Clouds | FEW160 | 44.6 | 28.8 | 54% | 39 | 29.98 | 0.0 | ||||||
| 05 | 14:15 | W 9 G 17 | 10.00 | Partly Cloudy | FEW028 SCT320 | 45.7 | 27.7 | 50% | 42 | 29.98 | 0.0 | ||||||
| 05 | 13:55 | W 17 | 10.00 | Partly Cloudy | SCT028 SCT180 | 43.2 | 28 | 55% | 36 | 29.99 | 0.0 | ||||||
| 05 | 13:35 | W 16 | 10.00 | Partly Cloudy | SCT027 | 43 | 29.7 | 59% | 36 | 29.98 | 0.0 | ||||||
| 05 | 13:15 | W 15 | 10.00 | Mostly Cloudy | BKN024 | 43.5 | 27.9 | 54% | 37 | 29.98 | 0.0 | ||||||
| 05 | 12:55 | W 17 | 10.00 | Overcast | OVC023 | 41.5 | 28.8 | 61% | 34 | 29.98 | 0.0 | ||||||
| 05 | 12:35 | W 16 | 10.00 | Overcast | OVC020 | 41.4 | 30.2 | 65% | 34 | 29.98 | 0.0 | ||||||
| 05 | 12:15 | W 14 | 10.00 | Overcast | BKN018 OVC024 | 42.1 | 30.7 | 64% | 35 | 29.98 | 0.0 | ||||||
| 05 | 11:55 | W 16 | 10.00 | Overcast | OVC018 | 41.5 | 31.5 | 67% | 34 | 29.97 | 0.0 | ||||||
| 05 | 11:35 | W 14 | 10.00 | Overcast | BKN018 OVC023 | 41.4 | 31.6 | 68% | 35 | 29.97 | 0.0 | ||||||
| 05 | 11:15 | SW 8 | 10.00 | Partly Cloudy | SCT021 | 44.2 | 31.6 | 61% | 40 | 29.97 | 0.0 | ||||||
| 05 | 10:55 | S 8 | 10.00 | Partly Cloudy | FEW021 SCT026 | 42.6 | 30.4 | 43 | 33.6 | 62% | 38 | 29.96 | 0.0 | ||||
| 05 | 10:35 | Vrbl 7 | 10.00 | Mostly Cloudy | SCT020 BKN025 | 42.3 | 30.2 | 62% | 38 | 29.95 | 0.0 | ||||||
| 05 | 10:15 | SW 9 | 10.00 | Overcast | BKN020 BKN025 OVC031 | 41.5 | 31.1 | 67% | 36 | 29.95 | 0.0 | ||||||
| 05 | 09:55 | W 8 | 10.00 | Overcast | OVC016 | 40.3 | 30.9 | 69% | 35 | 29.95 | 0.0 | ||||||
| 05 | 09:35 | W 10 | 9.00 | Overcast | OVC013 | 39.2 | 32.2 | 76% | 33 | 29.95 | 0.0 | ||||||
| 05 | 09:15 | SW 7 | 9.00 | Overcast | BKN013 OVC019 | 39 | 31.5 | 74% | 35 | 29.93 | 0.0 | ||||||
| 05 | 08:55 | SW 5 | 8.00 | Overcast | BKN011 OVC017 | 37.8 | 31.6 | 79% | 35 | 29.93 | 0.0 | ||||||
| 05 | 08:35 | SW 8 | 9.00 | Overcast | OVC011 | 38.3 | 31.6 | 77% | 33 | 29.92 | 0.0 | ||||||
| 05 | 08:15 | Vrbl 6 | 7.00 | Overcast | BKN009 OVC015 | 36.7 | 32.5 | 85% | 33 | 29.92 | 0.0 | ||||||
| 05 | 07:55 | SW 6 | 5.00 | Overcast with Haze | FEW007 BKN010 OVC020 | 36.1 | 32 | 85% | 32 | 29.92 | 0.0 | ||||||
| 05 | 07:35 | Vrbl 5 | 9.00 | Overcast | BKN010 OVC018 | 36 | 30.6 | 81% | 33 | 29.92 | 0.0 | ||||||
| 05 | 07:15 | W 6 | 6.00 | Fog/Mist | BKN008 OVC017 | 35.2 | 32 | 88% | 31 | 29.92 | 0.0 | ||||||
| 05 | 06:55 | SW 8 | 9.00 | Overcast | BKN016 OVC022 | 35.1 | 30.2 | 82% | 29 | 29.91 | 0.0 | ||||||
| 05 | 06:35 | SW 5 | 9.00 | Overcast | BKN016 OVC022 | 34.7 | 29.8 | 82% | 31 | 29.91 | 0.0 | ||||||
| 05 | 06:15 | Vrbl 7 | 9.00 | Overcast | BKN014 OVC019 | 34.7 | 29.5 | 81% | 29 | 29.91 | 0.0 | ||||||
| 05 | 05:55 | Vrbl 5 | 10.00 | Overcast | OVC014 | 34.7 | 29.5 | 81% | 31 | 29.91 | 0.0 | ||||||
| 05 | 05:35 | Vrbl 3 | 10.00 | Overcast | BKN013 OVC020 | 34.5 | 29.8 | 83% | 29.91 | 0.0 | |||||||
| 05 | 05:15 | Vrbl 7 | 10.00 | Partly Cloudy | SCT015 SCT021 | 33.6 | 29.1 | 84% | 28 | 29.91 | 0.0 | ||||||
| 05 | 04:55 | SW 5 | 10.00 | Mostly Cloudy | SCT016 BKN024 | 34.3 | 28.8 | 36.1 | 34.3 | 80% | 31 | 29.91 | 0.0 | ||||
| 05 | 04:35 | W 5 | 10.00 | Mostly Cloudy | SCT017 BKN023 | 34.5 | 29.1 | 81% | 31 | 29.92 | 0.0 | ||||||
| 05 | 04:15 | W 5 | 10.00 | Mostly Cloudy | SCT017 BKN022 | 34.9 | 29.3 | 80% | 31 | 29.91 | 0.0 | ||||||
| 05 | 03:55 | W 12 | 10.00 | Mostly Cloudy | BKN015 | 34.7 | 29.5 | 81% | 27 | 29.91 | 0.0 | ||||||
| 05 | 03:35 | W 9 | 10.00 | Mostly Cloudy | BKN014 | 34.9 | 30 | 82% | 28 | 29.91 | 0.0 | ||||||
| 05 | 03:15 | W 8 | 10.00 | Mostly Cloudy | BKN014 | 35.1 | 30.2 | 82% | 29 | 29.91 | 0.0 | ||||||
| 05 | 02:55 | Vrbl 7 | 10.00 | Overcast | SCT006 OVC017 | 35.1 | 30.9 | 85% | 30 | 29.92 | 0.0 | ||||||
| 05 | 02:35 | W 9 G 16 | 7.00 | Overcast | BKN006 OVC013 | 34.9 | 32.2 | 90% | 28 | 29.93 | 0.0 | ||||||
| 05 | 02:15 | SW 7 | 7.00 | Overcast | SCT006 OVC011 | 35.2 | 32.5 | 90% | 30 | 29.93 | 0.0 | ||||||
| 05 | 01:55 | SW 8 | 10.00 | Overcast | OVC012 | 35.4 | 30.7 | 83% | 30 | 29.94 | 0.0 | ||||||
| 05 | 01:35 | Vrbl 6 | 10.00 | Mostly Cloudy | BKN013 | 35.4 | 30.7 | 83% | 31 | 29.94 | 0.0 | ||||||
| 05 | 01:15 | W 7 | 10.00 | Fair | CLR | 35.6 | 30.9 | 83% | 31 | 29.95 | 0.0 | ||||||
| 05 | 00:55 | Vrbl 3 | 10.00 | Fair | CLR | 34.9 | 30.4 | 84% | 29.96 | 0.0 | |||||||
| 05 | 00:35 | Calm | 10.00 | Fair | CLR | 35.2 | 30.2 | 82% | 29.96 | 0.0 | |||||||
| 05 | 00:15 | W 9 | 10.00 | A Few Clouds | FEW015 | 35.4 | 29.7 | 80% | 29 | 29.95 | 0.0 | ||||||
| 04 | 23:55 | W 14 G 20 | 10.00 | Partly Cloudy | SCT015 | 36 | 29.1 | 76% | 28 | 29.96 | 0.0 | ||||||
| 04 | 23:35 | W 10 | 10.00 | Mostly Cloudy | BKN015 | 36 | 29.7 | 78% | 29 | 29.96 | 0.0 | ||||||
| 04 | 23:15 | SW 8 | 10.00 | Overcast | OVC017 | 36.1 | 30 | 79% | 30 | 29.98 | 0.0 | ||||||
| 04 | 22:55 | SW 6 | 10.00 | Overcast | BKN014 OVC020 | 36 | 31.1 | 44.4 | 36 | 83% | 32 | 29.99 | 0.0 | ||||
| 04 | 22:35 | W 6 | 9.00 | Overcast | BKN012 OVC019 | 36.1 | 31.5 | 83% | 32 | 29.99 | 0.0 | ||||||
| 04 | 22:15 | W 6 | 10.00 | Overcast | BKN011 OVC017 | 36.3 | 30.7 | 80% | 32 | 29.99 | 0.0 | ||||||
| 04 | 21:55 | Vrbl 6 | 9.00 | Overcast | BKN012 OVC019 | 36.3 | 31.6 | 83% | 32 | 30 | 0.0 | ||||||
| 04 | 21:35 | SW 9 | 10.00 | Overcast | BKN015 OVC020 | 36.3 | 31.1 | 81% | 30 | 29.99 | 0.0 | ||||||
| 04 | 21:15 | W 8 | 9.00 | Overcast | BKN011 OVC018 | 36.3 | 31.8 | 84% | 31 | 29.98 | 0.0 | ||||||
| 04 | 20:55 | SW 6 G 17 | 8.00 | Overcast | BKN011 OVC018 | 36.5 | 32.5 | 86% | 32 | 29.98 | 0.0 | ||||||
| 04 | 20:35 | SW 8 | 9.00 | Overcast | OVC012 | 36.9 | 31.3 | 80% | 31 | 29.98 | 0.0 | ||||||
| 04 | 20:15 | SW 9 | 10.00 | Overcast | BKN013 OVC019 | 36.9 | 30.7 | 79% | 31 | 29.98 | 0.0 | ||||||
| 04 | 19:55 | SW 6 G 18 | 10.00 | Overcast | BKN011 OVC018 | 37 | 31.5 | 80% | 33 | 29.98 | 0.0 | ||||||
| 04 | 19:35 | SW 13 G 21 | 9.00 | Overcast | OVC019 | 37.6 | 28.6 | 70% | 30 | 29.97 | 0.0 | ||||||
| 04 | 19:15 | SW 10 | 10.00 | Overcast | OVC018 | 38.1 | 28.2 | 68% | 32 | 29.97 | 0.0 | ||||||
| 04 | 18:55 | W 7 | 9.00 | Overcast | BKN016 OVC021 | 39.2 | 30.6 | 71% | 35 | 29.97 | 0.0 | ||||||
| 04 | 18:35 | Vrbl 7 | 9.00 | Overcast | BKN015 OVC021 | 38.5 | 31.8 | 77% | 34 | 29.99 | 0.0 | ||||||
| 04 | 18:15 | SW 10 | 9.00 | Overcast | OVC018 | 39 | 30.6 | 72% | 33 | 29.99 | 0.0 | ||||||
| 04 | 17:55 | W 9 G 22 | 9.00 | Overcast | SCT017 OVC022 | 39 | 30.2 | 71% | 33 | 29.99 | 0.0 | ||||||
| 04 | 17:35 | W 12 G 23 | 9.00 | Mostly Cloudy | BKN022 | 40.6 | 29.5 | 65% | 34 | 29.99 | 0.0 | ||||||
| 04 | 17:15 | W 12 G 21 | 9.00 | Fair | CLR | 41.5 | 29.1 | 61% | 36 | 29.99 | 0.0 | ||||||
| 04 | 16:55 | W 15 | 10.00 | Fair | CLR | 43.3 | 29.5 | 49.1 | 42.4 | 58% | 37 | 29.98 | 0.0 | ||||
| 04 | 16:35 | W 18 | 10.00 | A Few Clouds | FEW290 | 43.3 | 29.1 | 57% | 36 | 29.98 | 0.0 | ||||||
| 04 | 16:15 | W 16 | 9.00 | A Few Clouds | FEW240 | 42.8 | 28.9 | 58% | 36 | 29.99 | 0.0 | ||||||
| 04 | 15:55 | W 17 | 10.00 | Partly Cloudy | SCT025 SCT240 | 43.7 | 29.3 | 57% | 37 | 29.99 | 0.0 | ||||||
| 04 | 15:35 | W 16 | 10.00 | Mostly Cloudy | SCT025 BKN240 | 43.7 | 30 | 59% | 37 | 29.99 | 0.0 | ||||||
| 04 | 15:15 | W 15 | 10.00 | A Few Clouds | FEW370 | 44.1 | 29.3 | 56% | 38 | 29.99 | 0.0 | ||||||
| 04 | 14:55 | SW 10 G 17 | 10.00 | Partly Cloudy | SCT230 SCT290 | 45.9 | 29.7 | 53% | 41 | 30 | 0.0 | ||||||
| 04 | 14:35 | SW 10 G 20 | 10.00 | Partly Cloudy | SCT230 | 45 | 28.8 | 53% | 40 | 30 | 0.0 | ||||||
| 04 | 14:15 | W 13 | 10.00 | Partly Cloudy | FEW230 SCT350 | 44.8 | 29.1 | 54% | 39 | 30 | 0.0 | ||||||
| 04 | 13:55 | W 16 G 20 | 10.00 | A Few Clouds | FEW230 | 46.6 | 28.8 | 50% | 41 | 30 | 0.0 | ||||||
| 04 | 13:35 | SW 8 G 20 | 10.00 | A Few Clouds | FEW250 | 45.9 | 28.4 | 51% | 42 | 30 | 0.0 | ||||||
| 04 | 13:15 | W 8 | 10.00 | A Few Clouds | FEW250 | 48.2 | 27.3 | 44% | 45 | 29.99 | 0.0 | ||||||
| 04 | 12:55 | W 12 G 17 | 10.00 | Partly Cloudy | SCT230 SCT370 | 47.8 | 23.9 | 39% | 43 | 29.99 | 0.0 | ||||||
| 04 | 12:35 | W 17 | 10.00 | Partly Cloudy | SCT220 SCT240 | 48 | 24.3 | 39% | 42 | 29.99 | 0.0 | ||||||
| 04 | 12:15 | W 14 | 10.00 | A Few Clouds | FEW240 | 47.5 | 24.4 | 40% | 42 | 29.98 | 0.0 | ||||||
| 04 | 11:55 | SW 9 | 10.00 | A Few Clouds | FEW240 | 48.2 | 19.2 | 32% | 45 | 29.98 | 0.0 | ||||||
| 04 | 11:35 | SW 8 | 10.00 | A Few Clouds | FEW270 | 48.2 | 19.6 | 32% | 45 | 29.99 | 0.0 | ||||||
| 04 | 11:15 | W 12 | 10.00 | A Few Clouds | FEW230 | 48.7 | 21 | 33% | 44 | 29.99 | 0.0 | ||||||
| 04 | 10:55 | W 12 | 10.00 | A Few Clouds | FEW240 | 48.2 | 19 | 48.7 | 37.2 | 31% | 44 | 29.98 | 0.0 | ||||
| 04 | 10:35 | W 13 G 17 | 10.00 | Partly Cloudy | SCT230 | 48.4 | 12 | 23% | 44 | 29.98 | 0.0 | ||||||
| 04 | 10:15 | W 13 G 17 | 10.00 | Partly Cloudy | FEW220 SCT300 | 48 | 13.5 | 25% | 43 | 29.98 | 0.0 | ||||||
| 04 | 09:55 | SW 13 G 18 | 10.00 | Partly Cloudy | SCT220 | 47.7 | 7.5 | 19% | 43 | 29.97 | 0.0 | ||||||
| 04 | 09:35 | W 12 | 10.00 | A Few Clouds | FEW220 | 46 | 11.5 | 24% | 41 | 29.97 | 0.0 | ||||||
| 04 | 09:15 | W 9 | 10.00 | A Few Clouds | FEW240 | 45.5 | 10.8 | 24% | 41 | 29.97 | 0.0 | ||||||
| 04 | 08:55 | W 8 | 10.00 | A Few Clouds | FEW240 | 44.1 | 15.4 | 31% | 40 | 29.96 | 0.0 | ||||||
| 04 | 08:15 | Calm | 0.00 | NULL | NULL | 41.7 | 16.9 | 37% | 0 | 0.0 | |||||||
| 04 | 07:55 | W 7 | 10.00 | A Few Clouds | FEW240 | 40.3 | 16.7 | 38% | 36 | 29.96 | 0.0 | ||||||
| 04 | 07:35 | W 7 | 9.00 | A Few Clouds | FEW240 | 39.2 | 19.9 | 46% | 35 | 29.95 | 0.0 | ||||||
| 04 | 07:15 | Vrbl 7 | 10.00 | A Few Clouds | FEW230 | 38.1 | 21.9 | 52% | 34 | 29.96 | 0.0 | ||||||
| 04 | 06:55 | W 12 | 10.00 | A Few Clouds | FEW230 | 37.6 | 26.1 | 63% | 31 | 29.95 | 0.0 | ||||||
| 04 | 06:35 | W 8 | 10.00 | Partly Cloudy | SCT230 | 37.6 | 21.9 | 53% | 32 | 29.96 | 0.0 | ||||||
| 04 | 06:15 | W 8 | 10.00 | Partly Cloudy | SCT240 | 38.1 | 19.9 | 48% | 33 | 29.95 | 0.0 | ||||||
| 04 | 05:55 | W 9 | 10.00 | Mostly Cloudy | SCT240 BKN290 | 37.9 | 21 | 51% | 32 | 29.95 | 0.0 | ||||||
| 04 | 05:35 | W 8 | 10.00 | Mostly Cloudy | BKN240 | 38.1 | 21.7 | 52% | 33 | 29.95 | 0.0 | ||||||
| 04 | 05:15 | W 10 | 10.00 | Mostly Cloudy | BKN240 | 38.7 | 19.2 | 46% | 32 | 29.94 | 0.0 | ||||||
| 04 | 04:55 | Vrbl 6 | 10.00 | Mostly Cloudy | BKN240 | 36.1 | 21.6 | 37.8 | 33.8 | 55% | 32 | 29.94 | 0.0 | ||||
| 04 | 04:35 | SW 6 | 10.00 | A Few Clouds | FEW240 | 36.7 | 20.8 | 53% | 33 | 29.95 | 0.0 | ||||||
| 04 | 04:15 | SW 7 | 10.00 | Fair | CLR | 35.4 | 24.4 | 64% | 30 | 29.95 | 0.0 | ||||||
| 04 | 03:55 | SW 3 | 10.00 | Partly Cloudy | SCT240 SCT270 | 33.8 | 28.2 | 80% | 29.95 | 0.0 | |||||||
| 04 | 03:35 | Calm | 10.00 | Mostly Cloudy | BKN230 BKN270 BKN290 | 34.3 | 29.5 | 82% | 29.95 | 0.0 | |||||||
| 04 | 03:15 | Calm | 10.00 | Mostly Cloudy | SCT220 BKN300 | 35.1 | 30.2 | 82% | 29.95 | 0.0 | |||||||
| 04 | 02:55 | SW 3 | 10.00 | Partly Cloudy | SCT230 | 35.2 | 31.5 | 86% | 29.95 | 0.0 | |||||||
| 04 | 02:35 | Calm | 10.00 | Mostly Cloudy | SCT220 BKN240 | 35.8 | 32 | 86% | 29.96 | 0.0 | |||||||
| 04 | 02:15 | NW 3 | 10.00 | Partly Cloudy | FEW010 SCT220 | 36.3 | 32 | 84% | 29.97 | 0.0 | |||||||
| 04 | 01:55 | Vrbl 5 | 10.00 | Mostly Cloudy | BKN011 BKN230 | 36.3 | 32.5 | 86% | 33 | 29.97 | 0.0 | ||||||
| 04 | 01:35 | W 6 | 10.00 | Mostly Cloudy | BKN009 BKN014 BKN220 | 36.3 | 32.7 | 87% | 32 | 29.99 | 0.0 | ||||||
| 04 | 01:15 | W 9 | 10.00 | Partly Cloudy | SCT010 SCT015 | 36.7 | 32.2 | 84% | 31 | 29.99 | 0.0 | ||||||
| 04 | 00:55 | W 10 | 10.00 | Partly Cloudy | FEW011 SCT220 SCT250 | 36.9 | 32.4 | 84% | 30 | 29.99 | 0.0 | ||||||
| 04 | 00:35 | W 8 | 10.00 | Partly Cloudy | FEW009 SCT230 SCT250 | 36.9 | 32.2 | 83% | 31 | 29.98 | 0.0 | ||||||
| 04 | 00:15 | W 6 | 10.00 | A Few Clouds | FEW009 | 36.7 | 32.7 | 86% | 33 | 29.97 | 0.0 | ||||||
| 03 | 23:55 | W 6 | 10.00 | Fair | CLR | 37.4 | 32.4 | 82% | 33 | 29.98 | 0.0 | ||||||
| 03 | 23:35 | W 5 | 10.00 | Fair | CLR | 37.2 | 32.5 | 83% | 34 | 29.97 | 0.0 | ||||||
| 03 | 23:15 | Vrbl 3 | 10.00 | A Few Clouds | FEW011 | 37 | 32.9 | 85% | 29.97 | 0.0 | |||||||
| 03 | 22:55 | W 8 | 10.00 | Partly Cloudy | SCT009 | 37.8 | 33.8 | 55.4 | 37.8 | 86% | 32 | 29.98 | 0.0 | ||||
| 03 | 22:35 | W 8 | 10.00 | Mostly Cloudy | BKN009 | 37.8 | 34.3 | 88% | 32 | 29.99 | 0.0 | ||||||
| 03 | 22:15 | W 6 | 10.00 | Mostly Cloudy | BKN011 | 38.3 | 34.3 | 86% | 34 | 29.99 | 0.0 | ||||||
| 03 | 21:55 | W 6 | 10.00 | Fair | CLR | 39 | 33.6 | 81% | 35 | 29.99 | 0.0 | ||||||
| 03 | 21:35 | W 8 | 10.00 | Fair | CLR | 39.4 | 33.6 | 80% | 34 | 29.98 | 0.0 | ||||||
| 03 | 21:15 | SW 9 | 10.00 | Fair | CLR | 39.6 | 34.3 | 82% | 34 | 29.98 | 0.0 | ||||||
| 03 | 20:55 | SW 10 G 18 | 10.00 | A Few Clouds | FEW008 | 40.5 | 35.2 | 82% | 35 | 29.97 | 0.0 | ||||||
| 03 | 20:35 | SW 10 G 17 | 10.00 | Mostly Cloudy | BKN010 | 40.8 | 36.1 | 83% | 35 | 29.97 | 0.0 | ||||||
| 03 | 20:15 | SW 12 | 10.00 | Mostly Cloudy | BKN011 | 41.5 | 36.3 | 82% | 36 | 29.98 | 0.0 | ||||||
| 03 | 19:55 | SW 8 | 9.00 | Partly Cloudy | SCT013 | 42.6 | 36.7 | 80% | 38 | 29.97 | 0.0 | ||||||
| 03 | 19:35 | W 10 | 9.00 | A Few Clouds | FEW015 | 43.9 | 36.3 | 75% | 39 | 29.96 | 0.0 | ||||||
| 03 | 19:15 | W 10 | 9.00 | Fair | CLR | 45 | 36.9 | 73% | 40 | 29.96 | 0.0 | ||||||
| 03 | 18:55 | SW 9 | 9.00 | Fair | CLR | 47.3 | 37.8 | 70% | 43 | 29.96 | 0.0 | ||||||
| 03 | 18:35 | W 10 | 10.00 | Fair | CLR | 48.9 | 37.8 | 66% | 45 | 29.97 | 0.0 | ||||||
| 03 | 18:15 | W 9 | 9.00 | Fair | CLR | 51.8 | 35.6 | 54% | 29.97 | 0.0 | |||||||
| 03 | 17:55 | Vrbl 7 | 10.00 | Fair | CLR | 54.5 | 32 | 43% | 29.96 | 0.0 | |||||||
| 03 | 17:35 | SW 9 | 9.00 | Fair | CLR | 54.9 | 33.3 | 44% | 29.96 | 0.0 | |||||||
| 03 | 17:15 | W 10 | 10.00 | Fair | CLR | 54.7 | 32.5 | 43% | 29.96 | 0.0 | |||||||
| 03 | 16:55 | W 10 G 17 | 8.00 | Fair | CLR | 56.1 | 32.5 | 62.1 | 55.6 | 41% | 29.98 | 0.0 | |||||
| 03 | 16:35 | SW 12 G 18 | 8.00 | Fair | CLR | 55.6 | 32.7 | 42% | 29.99 | 0.0 | |||||||
| 03 | 16:15 | SW 15 G 21 | 8.00 | Fair | CLR | 57 | 31.5 | 38% | 29.99 | 0.0 | |||||||
| 03 | 15:55 | SW 9 G 18 | 9.00 | Fair | CLR | 57.4 | 31.3 | 37% | 30 | 0.0 | |||||||
| 03 | 15:35 | SW 14 | 9.00 | Fair | CLR | 59 | 30.9 | 35% | 30 | 0.0 | |||||||
| 03 | 15:15 | W 14 G 18 | 9.00 | Fair | CLR | 58.6 | 30.4 | 34% | 30 | 0.0 | |||||||
| 03 | 14:55 | W 12 G 17 | 10.00 | Fair | CLR | 58.8 | 28 | 31% | 30.01 | 0.0 | |||||||
| 03 | 14:35 | SW 12 G 20 | 9.00 | Fair | CLR | 59.7 | 28 | 30% | 30.01 | 0.0 | |||||||
| 03 | 14:15 | W 9 G 21 | 9.00 | Fair | CLR | 59.4 | 27.9 | 30% | 30 | 0.0 | |||||||
| 03 | 13:55 | W 9 | 9.00 | Fair | CLR | 60.4 | 25 | 26% | 30.01 | 0.0 | |||||||
| 03 | 13:35 | W 8 G 17 | 9.00 | Fair | CLR | 61 | 26.2 | 27% | 30.01 | 0.0 | |||||||
| 03 | 13:15 | SW 12 G 23 | 9.00 | A Few Clouds | FEW360 | 60.4 | 25.3 | 26% | 30.01 | 0.0 | |||||||
| 03 | 12:55 | Vrbl 7 | 9.00 | Fair | CLR | 60.8 | 25.2 | 26% | 30.02 | 0.0 | |||||||
| 03 | 12:35 | W 13 G 20 | 9.00 | Fair | CLR | 59.9 | 26.2 | 28% | 30.03 | 0.0 | |||||||
| 03 | 11:55 | SW 10 | 9.00 | Fair | CLR | 61 | 25.2 | 25% | 30.04 | 0.0 | |||||||
| 03 | 11:35 | S 8 G 16 | 10.00 | Fair | CLR | 61.3 | 24.8 | 25% | 30.04 | 0.0 | |||||||
| 03 | 11:15 | SW 13 G 18 | 9.00 | A Few Clouds | FEW080 | 61 | 24.3 | 24% | 30.04 | 0.0 | |||||||
| 03 | 10:55 | Vrbl 5 | 9.00 | A Few Clouds | FEW080 | 60.6 | 24.8 | 61.2 | 36 | 25% | 30.04 | 0.0 | |||||
| 03 | 10:35 | Vrbl 3 | 9.00 | Partly Cloudy | SCT080 | 59 | 24.3 | 26% | 30.05 | 0.0 | |||||||
| 03 | 10:15 | W 9 G 22 | 9.00 | A Few Clouds | FEW080 | 60.6 | 25.5 | 26% | 30.04 | 0.0 | |||||||
| 03 | 09:55 | S 7 | 9.00 | Fair | CLR | 59.9 | 24.1 | 25% | 30.04 | 0.0 | |||||||
| 03 | 09:35 | SW 6 | 9.00 | A Few Clouds | FEW080 | 61 | 25.2 | 25% | 30.05 | 0.0 | |||||||
| 03 | 09:15 | Vrbl 7 | 9.00 | Fair | CLR | 59.7 | 24.6 | 26% | 30.04 | 0.0 | |||||||
| 03 | 08:55 | SE 9 G 26 | 9.00 | A Few Clouds | FEW080 | 58.6 | 24.4 | 27% | 30.04 | 0.0 | |||||||
| 03 | 08:35 | Vrbl 3 | 9.00 | Fair | CLR | 57.9 | 24.4 | 28% | 30.05 | 0.0 | |||||||
| 03 | 08:15 | NW 5 | 10.00 | Fair | CLR | 55.9 | 25 | 30% | 30.05 | 0.0 | |||||||
| 03 | 07:55 | SE 3 | 10.00 | Fair | CLR | 50.4 | 26.6 | 40% | 30.06 | 0.0 | |||||||
| 03 | 07:35 | Calm | 10.00 | Fair | CLR | 46.9 | 26.2 | 45% | 30.06 | 0.0 | |||||||
| 03 | 07:15 | Calm | 9.00 | Fair | CLR | 43.2 | 25.3 | 49% | 30.06 | 0.0 | |||||||
| 03 | 06:55 | Calm | 9.00 | Fair | CLR | 39.2 | 24.4 | 56% | 30.06 | 0.0 | |||||||
| 03 | 06:35 | Calm | 9.00 | Fair | CLR | 38.1 | 24.3 | 57% | 30.05 | 0.0 | |||||||
| 03 | 06:15 | Calm | 9.00 | Fair | CLR | 37 | 23.9 | 59% | 30.05 | 0.0 | |||||||
| 03 | 05:55 | Calm | 10.00 | Fair | CLR | 36.3 | 24.3 | 62% | 30.04 | 0.0 | |||||||
| 03 | 05:35 | NE 3 | 10.00 | Fair | CLR | 37.8 | 24.3 | 58% | 30.04 | 0.0 | |||||||
| 03 | 05:15 | Calm | 10.00 | Fair | CLR | 37 | 24.6 | 61% | 30.04 | 0.0 | |||||||
| 03 | 04:55 | Calm | 10.00 | Fair | CLR | 37.6 | 24.4 | 53.8 | 37.4 | 59% | 30.04 | 0.0 | |||||
| 03 | 04:35 | Calm | 10.00 | Fair | CLR | 37.6 | 24.4 | 59% | 30.04 | 0.0 | |||||||
| 03 | 04:15 | Calm | 10.00 | Fair | CLR | 38.8 | 24.8 | 57% | 30.04 | 0.0 | |||||||
| 03 | 03:55 | Vrbl 3 | 10.00 | Fair | CLR | 39.7 | 25 | 56% | 30.06 | 0.0 | |||||||
| 03 | 03:35 | Calm | 10.00 | Fair | CLR | 40.8 | 25.2 | 54% | 30.06 | 0.0 | |||||||
| 03 | 03:15 | Calm | 10.00 | Fair | CLR | 42.1 | 25 | 51% | 30.05 | 0.0 | |||||||
| 03 | 02:55 | Calm | 10.00 | Mostly Cloudy | BKN300 | 42.1 | 26.1 | 53% | 30.06 | 0.0 | |||||||
| 03 | 02:35 | Calm | 10.00 | Mostly Cloudy | BKN300 | 42.6 | 26.2 | 52% | 30.06 | 0.0 | |||||||
| 03 | 02:15 | Calm | 10.00 | A Few Clouds | FEW300 | 44.1 | 26.8 | 51% | 30.07 | 0.0 | |||||||
| 03 | 01:55 | SW 6 | 10.00 | Partly Cloudy | SCT300 | 47.3 | 25.2 | 42% | 45 | 30.08 | 0.0 | ||||||
| 03 | 01:35 | W 3 | 10.00 | A Few Clouds | FEW300 | 45.7 | 27.3 | 49% | 30.09 | 0.0 | |||||||
| 03 | 01:15 | SW 5 | 10.00 | A Few Clouds | FEW300 | 45.9 | 27.5 | 49% | 44 | 30.09 | 0.0 | ||||||
| 03 | 00:55 | Calm | 10.00 | A Few Clouds | FEW300 | 42.8 | 29.3 | 59% | 30.1 | 0.0 | |||||||
| 03 | 00:35 | Calm | 10.00 | Fair | CLR | 42.4 | 29.5 | 60% | 30.1 | 0.0 | |||||||
| 03 | 00:15 | Calm | 9.00 | Fair | CLR | 42.8 | 30.9 | 63% | 30.1 | 0.0 | |||||||
| 02 | 23:55 | Calm | 10.00 | Fair | CLR | 43.5 | 30.9 | 61% | 30.11 | 0.0 | |||||||
| 02 | 23:35 | Calm | 9.00 | Fair | CLR | 44.6 | 31.1 | 59% | 30.12 | 0.0 | |||||||
| 02 | 23:15 | Calm | 10.00 | Fair | CLR | 47.5 | 31.6 | 54% | 30.12 | 0.0 | |||||||
| 02 | 22:55 | Calm | 9.00 | Fair | CLR | 46.6 | 34.2 | 65.1 | 46.6 | 62% | 30.12 | 0.0 | |||||
| 02 | 22:35 | SW 3 | 10.00 | Fair | CLR | 47.7 | 35.2 | 62% | 30.12 | 0.0 | |||||||
| 02 | 22:15 | SW 5 | 10.00 | Fair | CLR | 49.8 | 35.2 | 57% | 49 | 30.13 | 0.0 | ||||||
| 02 | 21:55 | SW 5 | 9.00 | Fair | CLR | 51.6 | 35.4 | 54% | 30.13 | 0.0 | |||||||
| 02 | 21:35 | Vrbl 3 | 9.00 | Fair | CLR | 54.5 | 32.9 | 44% | 30.12 | 0.0 | |||||||
| 02 | 21:15 | SW 7 | 10.00 | Fair | CLR | 54.1 | 34 | 47% | 30.11 | 0.0 | |||||||
| 02 | 20:55 | Vrbl 5 | 9.00 | Fair | CLR | 54.5 | 36 | 50% | 30.11 | 0.0 | |||||||
| 02 | 20:35 | W 8 | 9.00 | Fair | CLR | 54.3 | 36.3 | 51% | 30.11 | 0.0 | |||||||
| 02 | 20:15 | W 3 | 9.00 | Fair | CLR | 54.7 | 37.2 | 52% | 30.1 | 0.0 | |||||||
| 02 | 19:55 | W 6 | 8.00 | Fair | CLR | 55.2 | 38.1 | 53% | 30.09 | 0.0 | |||||||
| 02 | 19:35 | W 7 | 8.00 | Fair | CLR | 55.9 | 38.3 | 52% | 30.09 | 0.0 | |||||||
| 02 | 19:15 | W 9 | 8.00 | Fair | CLR | 57.2 | 37.9 | 49% | 30.09 | 0.0 | |||||||
| 02 | 18:55 | Vrbl 6 | 8.00 | Fair | CLR | 59.2 | 35.2 | 41% | 30.09 | 0.0 | |||||||
| 02 | 18:35 | SW 8 | 8.00 | Fair | CLR | 59.9 | 33.3 | 37% | 30.09 | 0.0 | |||||||
| 02 | 18:15 | W 9 | 8.00 | Fair | CLR | 61.2 | 33.1 | 35% | 30.09 | 0.0 | |||||||
| 02 | 17:55 | Vrbl 5 | 8.00 | Fair | CLR | 62.8 | 32.2 | 32% | 30.09 | 0.0 | |||||||
| 02 | 17:35 | W 10 | 8.00 | Fair | CLR | 63.3 | 31.1 | 30% | 30.09 | 0.0 | |||||||
| 02 | 17:15 | SW 7 | 9.00 | Fair | CLR | 63.7 | 32 | 31% | 30.09 | 0.0 | |||||||
| 02 | 16:55 | SW 10 | 8.00 | Partly Cloudy | SCT085 | 64 | 29.5 | 66.6 | 62.4 | 27% | 30.08 | 0.0 | |||||
| Date | Time (pdt) | Wind (mph) | Vis. (mi.) | Weather | Sky Cond. | Air | Dwpt | Max. | Min. | Relative Humidity | Wind Chill (°F) | Heat Index (°F) | altimeter (in) | sea level (mb) | 1 hr | 3 hr | 6 hr |
| 6 hour | |||||||||||||||||
| Temperature (ºF) | Pressure | Precipitation (in) | |||||||||||||||